createdAt,value
2022-08-20T00:00:37.574Z,22.00
2022-08-20T00:01:37.644Z,22.20
2022-08-20T00:02:37.573Z,24.60
2022-08-20T00:03:37.567Z,22.80
2022-08-20T00:04:39.647Z,23.90
2022-08-20T00:05:37.570Z,22.90
2022-08-20T00:06:37.564Z,22.10
2022-08-20T00:07:37.562Z,21.20
2022-08-20T00:08:37.564Z,21.20
2022-08-20T00:09:37.555Z,21.40
2022-08-20T00:10:37.556Z,21.60
2022-08-20T00:11:37.557Z,21.00
2022-08-20T00:12:37.557Z,22.60
2022-08-20T00:13:37.552Z,24.40
2022-08-20T00:14:37.552Z,21.60
2022-08-20T00:15:37.556Z,22.20
2022-08-20T00:16:37.551Z,21.20
2022-08-20T00:17:37.550Z,21.50
2022-08-20T00:18:37.548Z,22.60
2022-08-20T00:19:37.545Z,24.50
2022-08-20T00:20:37.545Z,25.40
2022-08-20T00:21:37.539Z,24.30
2022-08-20T00:22:37.539Z,24.90
2022-08-20T00:23:37.540Z,26.00
2022-08-20T00:24:37.539Z,24.30
2022-08-20T00:25:37.533Z,25.60
2022-08-20T00:26:37.536Z,25.30
2022-08-20T00:27:37.532Z,23.80
2022-08-20T00:28:37.532Z,25.10
2022-08-20T00:29:37.533Z,23.80
2022-08-20T00:30:37.528Z,23.00
2022-08-20T00:31:37.528Z,25.40
2022-08-20T00:32:37.526Z,22.50
2022-08-20T00:33:37.519Z,24.00
2022-08-20T00:34:37.519Z,25.20
2022-08-20T00:35:37.520Z,24.40
2022-08-20T00:36:37.519Z,24.10
2022-08-20T00:37:37.518Z,23.90
2022-08-20T00:38:37.526Z,24.20
2022-08-20T00:39:37.541Z,24.30
2022-08-20T00:40:37.513Z,22.40
2022-08-20T00:41:37.512Z,22.90
2022-08-20T00:42:37.520Z,24.60
2022-08-20T00:43:37.508Z,22.10
2022-08-20T00:44:37.509Z,23.30
2022-08-20T00:45:37.512Z,21.90
2022-08-20T00:46:37.499Z,22.20
2022-08-20T00:47:37.503Z,22.30
2022-08-20T00:48:37.500Z,23.00
2022-08-20T00:49:37.498Z,22.80
2022-08-20T00:50:37.501Z,21.90
2022-08-20T00:51:37.498Z,21.80
2022-08-20T00:52:37.535Z,21.30
2022-08-20T00:53:37.496Z,21.20
2022-08-20T00:54:37.490Z,22.30
2022-08-20T00:55:37.490Z,22.80
2022-08-20T00:56:37.490Z,23.20
2022-08-20T00:57:51.222Z,22.60
2022-08-20T00:58:37.485Z,21.30
2022-08-20T00:59:37.484Z,22.00
2022-08-20T01:00:37.481Z,24.00
2022-08-20T01:01:54.862Z,21.90
2022-08-20T01:02:37.481Z,22.80
2022-08-20T01:03:37.481Z,21.30
2022-08-20T01:04:37.489Z,20.70
2022-08-20T01:05:37.474Z,21.50
2022-08-20T01:06:37.470Z,21.30
2022-08-20T01:07:37.510Z,20.00
2022-08-20T01:08:37.467Z,21.50
2022-08-20T01:09:57.731Z,21.20
2022-08-20T01:10:37.462Z,20.50
2022-08-20T01:11:38.057Z,20.10
2022-08-20T01:12:37.464Z,20.40
2022-08-20T01:13:37.462Z,20.90
2022-08-20T01:14:37.465Z,21.10
2022-08-20T01:15:42.562Z,20.60
2022-08-20T01:16:37.456Z,20.70
2022-08-20T01:17:37.461Z,19.90
2022-08-20T01:18:37.452Z,20.30
2022-08-20T01:19:37.449Z,21.10
2022-08-20T01:20:37.451Z,20.20
2022-08-20T01:21:37.451Z,22.10
2022-08-20T01:22:37.444Z,21.50
2022-08-20T01:23:37.444Z,20.10
2022-08-20T01:24:37.441Z,21.30
2022-08-20T01:25:37.441Z,22.00
2022-08-20T01:26:37.450Z,21.60
2022-08-20T01:27:42.755Z,21.90
2022-08-20T01:28:37.435Z,23.00
2022-08-20T01:29:37.432Z,20.20
2022-08-20T01:30:37.434Z,21.60
2022-08-20T01:31:37.432Z,20.40
2022-08-20T01:32:37.435Z,19.70
2022-08-20T01:33:37.425Z,18.90
2022-08-20T01:34:37.426Z,20.70
2022-08-20T01:35:37.426Z,19.80
2022-08-20T01:36:37.424Z,19.10
2022-08-20T01:37:37.419Z,19.50
2022-08-20T01:38:37.418Z,19.30
2022-08-20T01:39:37.476Z,19.80
2022-08-20T01:40:37.418Z,20.70
2022-08-20T01:41:37.417Z,18.40
2022-08-20T01:42:37.417Z,23.60
2022-08-20T01:43:37.410Z,21.90
2022-08-20T01:44:37.417Z,23.70
2022-08-20T01:45:37.404Z,23.30
2022-08-20T01:46:37.400Z,23.10
2022-08-20T01:47:38.691Z,22.40
2022-08-20T01:48:37.420Z,22.50
2022-08-20T01:49:37.406Z,24.00
2022-08-20T01:50:37.397Z,23.80
2022-08-20T01:51:37.401Z,25.10
2022-08-20T01:52:37.396Z,27.10
2022-08-20T01:53:37.393Z,26.10
2022-08-20T01:54:37.391Z,26.40
2022-08-20T01:55:37.391Z,26.10
2022-08-20T01:56:37.392Z,26.90
2022-08-20T01:57:37.383Z,26.40
2022-08-20T01:58:37.382Z,25.00
2022-08-20T01:59:37.382Z,23.90
2022-08-20T02:00:37.378Z,24.80
2022-08-20T02:01:46.561Z,24.20
2022-08-20T02:02:37.376Z,25.60
2022-08-20T02:03:40.788Z,26.90
2022-08-20T02:04:37.409Z,26.30
2022-08-20T02:05:37.370Z,27.70
2022-08-20T02:06:37.364Z,26.90
2022-08-20T02:07:37.366Z,26.00
2022-08-20T02:08:37.362Z,28.00
2022-08-20T02:09:37.362Z,27.50
2022-08-20T02:10:37.360Z,28.10
2022-08-20T02:11:37.359Z,25.40
2022-08-20T02:12:37.359Z,23.80
2022-08-20T02:13:37.356Z,26.00
2022-08-20T02:14:37.354Z,24.60
2022-08-20T02:15:39.839Z,25.70
2022-08-20T02:16:37.345Z,27.20
2022-08-20T02:17:37.349Z,27.70
2022-08-20T02:18:37.348Z,24.50
2022-08-20T02:19:37.358Z,26.10
2022-08-20T02:20:37.344Z,27.20
2022-08-20T02:21:37.339Z,26.20
2022-08-20T02:22:37.438Z,26.50
2022-08-20T02:23:37.336Z,28.80
2022-08-20T02:24:37.335Z,29.00
2022-08-20T02:25:37.334Z,30.70
2022-08-20T02:26:37.330Z,28.70
2022-08-20T02:27:37.331Z,31.50
2022-08-20T02:28:37.328Z,29.90
2022-08-20T02:29:37.328Z,31.50
2022-08-20T02:30:37.321Z,30.50
2022-08-20T02:31:37.322Z,31.50
2022-08-20T02:32:37.316Z,31.50
2022-08-20T02:33:37.381Z,32.40
2022-08-20T02:34:37.315Z,34.00
2022-08-20T02:35:37.318Z,32.80
2022-08-20T02:36:37.312Z,35.20
2022-08-20T02:37:37.321Z,38.70
2022-08-20T02:38:37.309Z,37.60
2022-08-20T02:39:37.342Z,36.90
2022-08-20T02:40:37.305Z,36.10
2022-08-20T02:41:37.303Z,41.20
2022-08-20T02:42:37.298Z,40.90
2022-08-20T02:43:37.297Z,41.90
2022-08-20T02:44:37.296Z,40.80
2022-08-20T02:45:37.358Z,42.40
2022-08-20T02:46:37.422Z,43.20
2022-08-20T02:47:37.291Z,43.90
2022-08-20T02:48:37.286Z,43.20
2022-08-20T02:49:37.292Z,43.40
2022-08-20T02:50:37.285Z,44.50
2022-08-20T02:51:37.282Z,44.00
2022-08-20T02:52:37.282Z,44.90
2022-08-20T02:53:37.294Z,43.10
2022-08-20T02:54:37.276Z,46.50
2022-08-20T02:55:37.274Z,47.10
2022-08-20T02:56:37.272Z,48.10
2022-08-20T02:57:37.269Z,45.60
2022-08-20T02:58:37.273Z,48.60
2022-08-20T02:59:37.268Z,48.90
2022-08-20T03:00:38.287Z,47.20
2022-08-20T03:01:37.305Z,47.60
2022-08-20T03:02:37.270Z,47.60
2022-08-20T03:03:37.259Z,48.70
2022-08-20T03:04:37.256Z,49.90
2022-08-20T03:05:39.212Z,52.80
2022-08-20T03:06:37.261Z,51.60
2022-08-20T03:07:37.253Z,51.20
2022-08-20T03:08:37.250Z,51.10
2022-08-20T03:09:37.249Z,51.70
2022-08-20T03:10:37.247Z,52.50
2022-08-20T03:11:37.244Z,52.30
2022-08-20T03:12:37.242Z,54.20
2022-08-20T03:13:37.248Z,52.00
2022-08-20T03:14:37.240Z,57.70
2022-08-20T03:15:37.240Z,55.40
2022-08-20T03:16:37.243Z,59.20
2022-08-20T03:17:37.231Z,62.90
2022-08-20T03:18:37.229Z,63.20
2022-08-20T03:19:37.236Z,63.60
2022-08-20T03:20:37.230Z,62.20
2022-08-20T03:21:37.244Z,65.00
2022-08-20T03:22:37.224Z,69.60
2022-08-20T03:23:37.224Z,68.70
2022-08-20T03:24:37.224Z,67.00
2022-08-20T03:25:37.216Z,66.30
2022-08-20T03:26:37.219Z,66.70
2022-08-20T03:27:37.215Z,66.80
2022-08-20T03:28:37.224Z,66.30
2022-08-20T03:29:37.211Z,68.70
2022-08-20T03:30:37.211Z,69.60
2022-08-20T03:31:37.208Z,68.70
2022-08-20T03:32:37.204Z,72.90
2022-08-20T03:33:37.204Z,70.30
2022-08-20T03:34:37.208Z,68.50
2022-08-20T03:35:37.203Z,68.80
2022-08-20T03:36:37.203Z,70.00
2022-08-20T03:37:37.196Z,70.40
2022-08-20T03:38:37.197Z,73.90
2022-08-20T03:39:37.237Z,73.20
2022-08-20T03:40:37.192Z,68.40
2022-08-20T03:41:37.188Z,69.30
2022-08-20T03:42:37.187Z,74.00
2022-08-20T03:43:37.186Z,72.70
2022-08-20T03:44:37.198Z,72.40
2022-08-20T03:45:37.187Z,71.70
2022-08-20T03:46:37.180Z,70.70
2022-08-20T03:47:37.181Z,72.80
2022-08-20T03:48:37.176Z,72.80
2022-08-20T03:49:37.173Z,76.00
2022-08-20T03:50:37.174Z,70.40
2022-08-20T03:51:56.481Z,74.80
2022-08-20T03:52:37.168Z,71.00
2022-08-20T03:53:37.165Z,71.70
2022-08-20T03:54:37.165Z,71.50
2022-08-20T03:55:37.165Z,71.10
2022-08-20T03:56:37.161Z,67.40
2022-08-20T03:57:37.159Z,67.30
2022-08-20T03:58:37.158Z,71.30
2022-08-20T03:59:37.160Z,71.30
2022-08-20T04:00:37.166Z,74.00
2022-08-20T04:01:45.983Z,71.40
2022-08-20T04:02:37.153Z,71.40
2022-08-20T04:03:37.146Z,69.90
2022-08-20T04:04:37.146Z,69.20
2022-08-20T04:05:37.144Z,69.70
2022-08-20T04:06:37.142Z,72.10
2022-08-20T04:07:37.143Z,69.60
2022-08-20T04:08:37.138Z,71.70
2022-08-20T04:09:37.136Z,71.60
2022-08-20T04:10:37.142Z,71.60
2022-08-20T04:11:37.131Z,71.90
2022-08-20T04:12:37.130Z,75.80
2022-08-20T04:13:41.800Z,76.10
2022-08-20T04:14:37.127Z,74.20
2022-08-20T04:15:37.126Z,73.90
2022-08-20T04:16:37.122Z,74.80
2022-08-20T04:17:37.119Z,75.50
2022-08-20T04:18:37.118Z,70.60
2022-08-20T04:19:37.122Z,71.70
2022-08-20T04:20:37.118Z,70.20
2022-08-20T04:21:37.113Z,69.90
2022-08-20T04:22:37.114Z,69.80
2022-08-20T04:23:37.108Z,68.50
2022-08-20T04:24:37.109Z,70.30
2022-08-20T04:25:37.104Z,66.90
2022-08-20T04:26:37.105Z,64.40
2022-08-20T04:27:37.103Z,65.90
2022-08-20T04:28:37.099Z,70.20
2022-08-20T04:29:37.096Z,64.10
2022-08-20T04:30:37.098Z,62.60
2022-08-20T04:31:37.091Z,62.00
2022-08-20T04:32:37.088Z,61.30
2022-08-20T04:33:37.089Z,60.50
2022-08-20T04:34:37.091Z,60.30
2022-08-20T04:35:37.085Z,59.10
2022-08-20T04:36:37.084Z,60.50
2022-08-20T04:37:37.081Z,58.60
2022-08-20T04:38:48.446Z,59.50
2022-08-20T04:39:37.099Z,57.10
2022-08-20T04:40:37.079Z,59.90
2022-08-20T04:41:37.075Z,52.50
2022-08-20T04:42:37.079Z,55.40
2022-08-20T04:43:37.070Z,52.50
2022-08-20T04:44:37.069Z,55.50
2022-08-20T04:45:37.070Z,55.90
2022-08-20T04:46:37.066Z,53.50
2022-08-20T04:47:37.064Z,53.70
2022-08-20T04:48:37.060Z,56.60
2022-08-20T04:49:37.053Z,53.70
2022-08-20T04:50:37.056Z,53.30
2022-08-20T04:51:37.156Z,54.40
2022-08-20T04:52:37.051Z,54.70
2022-08-20T04:53:37.049Z,55.30
2022-08-20T04:54:37.048Z,51.70
2022-08-20T04:55:37.045Z,53.80
2022-08-20T04:56:37.044Z,55.40
2022-08-20T04:57:37.042Z,54.20
2022-08-20T04:58:37.039Z,53.50
2022-08-20T04:59:37.042Z,51.40
2022-08-20T05:00:37.031Z,55.60
2022-08-20T05:01:37.081Z,53.20
2022-08-20T05:02:37.032Z,53.80
2022-08-20T05:03:37.034Z,50.60
2022-08-20T05:04:37.028Z,50.10
2022-08-20T05:05:37.030Z,48.70
2022-08-20T05:06:37.023Z,48.50
2022-08-20T05:07:37.024Z,49.20
2022-08-20T05:08:37.021Z,50.00
2022-08-20T05:09:43.846Z,49.70
2022-08-20T05:10:37.019Z,50.60
2022-08-20T05:11:37.164Z,52.40
2022-08-20T05:12:37.007Z,49.30
2022-08-20T05:13:37.009Z,53.30
2022-08-20T05:14:37.015Z,50.00
2022-08-20T05:15:37.004Z,48.70
2022-08-20T05:16:37.011Z,53.80
2022-08-20T05:17:37.000Z,51.40
2022-08-20T05:18:36.998Z,48.20
2022-08-20T05:19:38.873Z,49.90
2022-08-20T05:20:36.995Z,51.50
2022-08-20T05:21:37.014Z,50.90
2022-08-20T05:22:36.994Z,49.70
2022-08-20T05:23:36.997Z,49.60
2022-08-20T05:24:36.988Z,51.00
2022-08-20T05:25:36.991Z,51.40
2022-08-20T05:26:37.000Z,52.70
2022-08-20T05:27:36.984Z,51.80
2022-08-20T05:28:51.369Z,54.00
2022-08-20T05:29:36.994Z,50.80
2022-08-20T05:30:36.974Z,51.50
2022-08-20T05:31:36.974Z,56.50
2022-08-20T05:32:44.660Z,51.80
2022-08-20T05:33:36.973Z,53.90
2022-08-20T05:34:45.632Z,50.70
2022-08-20T05:36:40.969Z,52.10
2022-08-20T05:37:40.951Z,50.10
2022-08-20T05:38:40.946Z,53.20
2022-08-20T05:39:40.999Z,51.60
2022-08-20T05:40:40.945Z,51.90
2022-08-20T05:41:40.945Z,54.50
2022-08-20T05:42:40.938Z,55.30
2022-08-20T05:43:40.941Z,54.30
2022-08-20T05:44:40.935Z,55.70
2022-08-20T05:45:40.932Z,54.90
2022-08-20T05:46:41.075Z,55.80
2022-08-20T05:47:51.303Z,54.90
2022-08-20T05:48:40.927Z,54.00
2022-08-20T05:49:40.928Z,56.00
2022-08-20T05:50:40.920Z,55.60
2022-08-20T05:51:40.925Z,58.20
2022-08-20T05:52:40.916Z,54.00
2022-08-20T05:53:40.919Z,55.20
2022-08-20T05:54:40.916Z,53.20
2022-08-20T05:55:40.912Z,54.30
2022-08-20T05:56:40.912Z,53.10
2022-08-20T05:57:40.914Z,52.70
2022-08-20T05:58:40.912Z,54.00
2022-08-20T05:59:40.907Z,51.20
2022-08-20T06:00:40.905Z,53.50
2022-08-20T06:01:40.942Z,54.40
2022-08-20T06:02:40.898Z,53.20
2022-08-20T06:03:40.898Z,52.20
2022-08-20T06:04:40.898Z,54.20
2022-08-20T06:05:40.900Z,52.00
2022-08-20T06:06:46.172Z,51.40
2022-08-20T06:07:40.893Z,52.30
2022-08-20T06:08:40.891Z,53.40
2022-08-20T06:09:44.324Z,50.70
2022-08-20T06:10:43.305Z,48.00
2022-08-20T06:11:40.890Z,50.40
2022-08-20T06:12:40.883Z,50.00
2022-08-20T06:13:40.880Z,52.40
2022-08-20T06:14:40.878Z,49.60
2022-08-20T06:15:40.877Z,50.30
2022-08-20T06:16:57.113Z,49.60
2022-08-20T06:17:40.875Z,48.60
2022-08-20T06:18:40.880Z,47.70
2022-08-20T06:19:41.672Z,48.10
2022-08-20T06:20:40.869Z,47.90
2022-08-20T06:21:40.871Z,46.90
2022-08-20T06:22:40.865Z,46.90
2022-08-20T06:23:56.897Z,47.70
2022-08-20T06:24:40.864Z,45.50
2022-08-20T06:25:40.865Z,47.70
2022-08-20T06:26:40.859Z,47.70
2022-08-20T06:27:40.858Z,48.50
2022-08-20T06:28:40.855Z,50.10
2022-08-20T06:29:40.855Z,48.40
2022-08-20T06:30:40.850Z,45.90
2022-08-20T06:31:40.851Z,45.20
2022-08-20T06:32:40.850Z,44.70
2022-08-20T06:33:40.849Z,44.10
2022-08-20T06:34:50.185Z,40.20
2022-08-20T06:35:40.843Z,42.90
2022-08-20T06:36:40.842Z,43.70
2022-08-20T06:37:40.841Z,44.50
2022-08-20T06:38:40.841Z,45.30
2022-08-20T06:39:40.872Z,43.10
2022-08-20T06:40:40.835Z,46.10
2022-08-20T06:41:40.835Z,43.00
2022-08-20T06:42:44.474Z,43.50
2022-08-20T06:43:40.834Z,44.40
2022-08-20T06:44:40.829Z,43.50
2022-08-20T06:45:40.830Z,44.50
2022-08-20T06:46:40.825Z,44.20
2022-08-20T06:47:40.823Z,43.80
2022-08-20T06:48:40.820Z,45.60
2022-08-20T06:49:40.826Z,45.90
2022-08-20T06:50:47.207Z,46.50
2022-08-20T06:51:41.472Z,45.50
2022-08-20T06:52:51.663Z,48.40
2022-08-20T06:53:40.814Z,46.40
2022-08-20T06:54:40.818Z,48.60
2022-08-20T06:55:40.812Z,50.20
2022-08-20T06:56:40.810Z,51.00
2022-08-20T06:57:40.807Z,51.10
2022-08-20T06:58:40.804Z,54.20
2022-08-20T06:59:40.805Z,48.40
2022-08-20T07:00:40.835Z,52.50
2022-08-20T07:01:40.871Z,47.00
2022-08-20T07:02:40.822Z,46.50
2022-08-20T07:03:42.124Z,50.00
2022-08-20T07:04:40.792Z,50.30
2022-08-20T07:05:40.798Z,47.10
2022-08-20T07:06:40.798Z,45.50
2022-08-20T07:07:40.791Z,47.00
2022-08-20T07:08:40.790Z,48.50
2022-08-20T07:09:40.790Z,48.80
2022-08-20T07:10:40.783Z,45.80
2022-08-20T07:11:40.784Z,47.10
2022-08-20T07:12:40.786Z,47.40
2022-08-20T07:13:40.790Z,50.20
2022-08-20T07:14:40.781Z,48.30
2022-08-20T07:15:40.779Z,48.70
2022-08-20T07:16:40.773Z,48.80
2022-08-20T07:17:40.776Z,51.20
2022-08-20T07:18:40.781Z,52.40
2022-08-20T07:19:40.771Z,48.90
2022-08-20T07:20:40.766Z,50.30
2022-08-20T07:21:40.773Z,51.50
2022-08-20T07:22:40.765Z,51.90
2022-08-20T07:23:40.936Z,54.40
2022-08-20T07:24:42.018Z,54.70
2022-08-20T07:25:40.759Z,54.80
2022-08-20T07:26:40.763Z,55.30
2022-08-20T07:27:40.856Z,55.50
2022-08-20T07:28:40.766Z,52.10
2022-08-20T07:29:40.774Z,53.00
2022-08-20T07:30:56.174Z,54.90
2022-08-20T07:31:42.126Z,54.50
2022-08-20T07:32:45.227Z,57.80
2022-08-20T07:33:40.749Z,55.00
2022-08-20T07:34:41.030Z,56.40
2022-08-20T07:35:40.750Z,54.40
2022-08-20T07:36:40.744Z,60.20
2022-08-20T07:37:40.742Z,58.10
2022-08-20T07:38:40.742Z,59.40
2022-08-20T07:39:40.770Z,62.50
2022-08-20T07:40:40.742Z,58.20
2022-08-20T07:41:40.742Z,59.40
2022-08-20T07:42:40.738Z,61.30
2022-08-20T07:43:40.735Z,61.40
2022-08-20T07:44:40.737Z,67.30
2022-08-20T07:45:40.736Z,69.30
2022-08-20T07:46:40.732Z,68.30
2022-08-20T07:47:40.733Z,74.60
2022-08-20T07:48:40.728Z,67.90
2022-08-20T07:49:40.729Z,64.00
2022-08-20T07:50:40.726Z,62.30
2022-08-20T07:51:40.724Z,60.90
2022-08-20T07:52:40.724Z,60.50
2022-08-20T07:53:40.722Z,58.10
2022-08-20T07:54:40.723Z,57.90
2022-08-20T07:55:40.720Z,54.30
2022-08-20T07:56:40.720Z,53.50
2022-08-20T07:57:40.721Z,56.50
2022-08-20T07:58:40.719Z,57.10
2022-08-20T07:59:40.716Z,57.00
2022-08-20T08:00:40.735Z,60.40
2022-08-20T08:01:40.710Z,56.40
2022-08-20T08:02:40.712Z,59.00
2022-08-20T08:03:49.840Z,57.20
2022-08-20T08:04:40.711Z,56.40
2022-08-20T08:05:40.708Z,54.20
2022-08-20T08:06:40.710Z,53.20
2022-08-20T08:07:40.705Z,55.80
2022-08-20T08:08:40.703Z,55.30
2022-08-20T08:09:40.706Z,54.10
2022-08-20T08:10:40.700Z,56.10
2022-08-20T08:11:44.931Z,53.00
2022-08-20T08:12:40.700Z,52.50
2022-08-20T08:13:40.701Z,53.80
2022-08-20T08:14:40.692Z,57.10
2022-08-20T08:15:40.694Z,52.30
2022-08-20T08:16:40.695Z,51.90
2022-08-20T08:17:40.692Z,52.20
2022-08-20T08:18:40.696Z,51.00
2022-08-20T08:19:40.690Z,55.00
2022-08-20T08:20:47.021Z,53.80
2022-08-20T08:21:40.688Z,56.50
2022-08-20T08:22:40.688Z,54.00
2022-08-20T08:23:40.687Z,53.10
2022-08-20T08:24:40.683Z,57.90
2022-08-20T08:25:40.688Z,57.50
2022-08-20T08:26:40.690Z,56.40
2022-08-20T08:27:40.683Z,51.40
2022-08-20T08:28:40.678Z,53.00
2022-08-20T08:29:40.679Z,52.60
2022-08-20T08:30:40.677Z,51.00
2022-08-20T08:31:40.676Z,52.00
2022-08-20T08:32:40.675Z,52.30
2022-08-20T08:33:40.734Z,53.00
2022-08-20T08:34:40.671Z,54.00
2022-08-20T08:35:40.793Z,54.80
2022-08-20T08:36:40.676Z,55.00
2022-08-20T08:37:40.670Z,52.80
2022-08-20T08:38:40.669Z,53.60
2022-08-20T08:39:40.702Z,54.30
2022-08-20T08:40:40.667Z,49.70
2022-08-20T08:41:40.667Z,50.70
2022-08-20T08:42:43.250Z,55.80
2022-08-20T08:43:40.666Z,53.40
2022-08-20T08:44:40.663Z,53.30
2022-08-20T08:45:40.664Z,50.60
2022-08-20T08:46:40.662Z,52.90
2022-08-20T08:47:40.662Z,51.40
2022-08-20T08:48:40.663Z,50.30
2022-08-20T08:49:40.661Z,48.10
2022-08-20T08:50:53.611Z,50.90
2022-08-20T08:51:40.660Z,54.60
2022-08-20T08:52:40.658Z,52.40
2022-08-20T08:53:40.660Z,53.70
2022-08-20T08:54:40.655Z,55.80
2022-08-20T08:55:40.653Z,49.70
2022-08-20T08:56:40.650Z,57.90
2022-08-20T08:57:40.656Z,54.10
2022-08-20T08:58:40.648Z,54.40
2022-08-20T08:59:48.734Z,54.80
2022-08-20T09:00:52.813Z,51.40
2022-08-20T09:01:55.499Z,54.40
2022-08-20T09:02:40.694Z,52.00
2022-08-20T09:03:40.646Z,49.70
2022-08-20T09:04:40.654Z,50.70
2022-08-20T09:05:40.643Z,50.50
2022-08-20T09:06:40.694Z,51.60
2022-08-20T09:07:40.643Z,49.00
2022-08-20T09:08:40.646Z,51.10
2022-08-20T09:09:40.642Z,51.50
2022-08-20T09:10:40.641Z,49.70
2022-08-20T09:11:40.637Z,51.40
2022-08-20T09:12:43.359Z,49.10
2022-08-20T09:13:40.641Z,50.30
2022-08-20T09:14:40.635Z,48.00
2022-08-20T09:15:40.639Z,47.80
2022-08-20T09:16:52.231Z,51.60
2022-08-20T09:17:40.641Z,52.50
2022-08-20T09:18:40.631Z,49.20
2022-08-20T09:19:40.633Z,50.10
2022-08-20T09:20:40.633Z,49.80
2022-08-20T09:21:40.631Z,49.20
2022-08-20T09:22:40.633Z,50.00
2022-08-20T09:23:40.635Z,49.30
2022-08-20T09:24:40.628Z,50.30
2022-08-20T09:25:40.630Z,48.40
2022-08-20T09:26:40.627Z,49.00
2022-08-20T09:27:41.436Z,47.00
2022-08-20T09:28:40.625Z,50.20
2022-08-20T09:29:40.627Z,48.80
2022-08-20T09:30:40.625Z,47.00
2022-08-20T09:31:40.620Z,47.70
2022-08-20T09:32:40.625Z,44.10
2022-08-20T09:33:40.622Z,47.80
2022-08-20T09:34:40.625Z,49.90
2022-08-20T09:35:40.620Z,45.70
2022-08-20T09:36:40.620Z,46.40
2022-08-20T09:37:40.622Z,42.00
2022-08-20T09:38:40.621Z,44.10
2022-08-20T09:39:40.674Z,43.90
2022-08-20T09:40:40.615Z,44.40
2022-08-20T09:41:40.619Z,43.40
2022-08-20T09:42:41.839Z,40.50
2022-08-20T09:43:40.617Z,44.60
2022-08-20T09:44:40.610Z,41.10
2022-08-20T09:45:40.614Z,40.10
2022-08-20T09:46:40.614Z,38.80
2022-08-20T09:47:55.262Z,38.50
2022-08-20T09:48:40.614Z,36.70
2022-08-20T09:49:40.615Z,38.50
2022-08-20T09:50:40.611Z,35.80
2022-08-20T09:51:40.611Z,34.70
2022-08-20T09:52:40.907Z,34.50
2022-08-20T09:53:40.612Z,35.30
2022-08-20T09:54:46.291Z,33.00
2022-08-20T09:55:40.609Z,33.50
2022-08-20T09:56:40.607Z,34.60
2022-08-20T09:57:40.613Z,33.10
2022-08-20T09:58:40.605Z,29.90
2022-08-20T09:59:40.605Z,30.30
2022-08-20T10:00:40.614Z,31.00
2022-08-20T10:01:40.660Z,30.80
2022-08-20T10:02:40.604Z,30.80
2022-08-20T10:03:41.769Z,28.80
2022-08-20T10:04:40.606Z,28.80
2022-08-20T10:05:40.631Z,29.10
2022-08-20T10:06:40.603Z,26.90
2022-08-20T10:07:40.602Z,28.00
2022-08-20T10:08:40.600Z,26.40
2022-08-20T10:09:40.603Z,26.30
2022-08-20T10:10:40.602Z,30.20
2022-08-20T10:11:40.697Z,27.00
2022-08-20T10:12:40.602Z,26.90
2022-08-20T10:13:40.601Z,26.30
2022-08-20T10:14:40.601Z,28.80
2022-08-20T10:15:41.971Z,27.40
2022-08-20T10:16:40.600Z,28.00
2022-08-20T10:17:40.606Z,26.10
2022-08-20T10:18:40.606Z,26.60
2022-08-20T10:19:40.600Z,25.90
2022-08-20T10:20:40.596Z,24.80
2022-08-20T10:21:40.601Z,27.90
2022-08-20T10:22:40.598Z,24.40
2022-08-20T10:23:40.599Z,24.50
2022-08-20T10:24:40.596Z,25.90
2022-08-20T10:25:40.618Z,25.30
2022-08-20T10:26:40.594Z,23.90
2022-08-20T10:27:40.601Z,25.70
2022-08-20T10:28:40.601Z,24.50
2022-08-20T10:29:43.996Z,25.60
2022-08-20T10:30:40.602Z,25.00
2022-08-20T10:31:40.644Z,25.90
2022-08-20T10:32:40.599Z,25.50
2022-08-20T10:33:40.601Z,26.50
2022-08-20T10:34:40.603Z,27.10
2022-08-20T10:35:40.601Z,26.20
2022-08-20T10:36:40.600Z,25.70
2022-08-20T10:37:40.600Z,25.60
2022-08-20T10:38:40.601Z,26.60
2022-08-20T10:39:40.639Z,26.80
2022-08-20T10:40:40.601Z,25.60
2022-08-20T10:41:40.599Z,23.10
2022-08-20T10:42:42.774Z,26.10
2022-08-20T10:43:40.599Z,24.90
2022-08-20T10:44:40.600Z,23.30
2022-08-20T10:45:40.597Z,25.60
2022-08-20T10:46:40.602Z,24.70
2022-08-20T10:47:40.621Z,23.80
2022-08-20T10:48:40.596Z,24.50
2022-08-20T10:49:40.599Z,23.80
2022-08-20T10:50:40.600Z,24.40
2022-08-20T10:51:40.603Z,24.60
2022-08-20T10:52:40.599Z,22.00
2022-08-20T10:53:40.598Z,25.20
2022-08-20T10:54:40.600Z,23.50
2022-08-20T10:55:40.595Z,19.70
2022-08-20T10:56:40.624Z,17.80
2022-08-20T10:57:40.676Z,19.50
2022-08-20T10:58:41.400Z,19.00
2022-08-20T10:59:40.621Z,17.20
2022-08-20T11:00:40.599Z,19.60
2022-08-20T11:01:40.675Z,17.70
2022-08-20T11:02:40.600Z,17.70
2022-08-20T11:03:40.598Z,16.50
2022-08-20T11:04:40.600Z,18.40
2022-08-20T11:05:40.599Z,16.50
2022-08-20T11:06:40.598Z,15.50
2022-08-20T11:07:52.829Z,14.80
2022-08-20T11:08:40.599Z,13.90
2022-08-20T11:09:40.596Z,15.60
2022-08-20T11:10:40.598Z,13.80
2022-08-20T11:11:40.600Z,13.00
2022-08-20T11:12:40.601Z,14.30
2022-08-20T11:13:40.600Z,12.20
2022-08-20T11:14:40.595Z,13.10
2022-08-20T11:15:40.598Z,11.50
2022-08-20T11:16:40.611Z,10.80
2022-08-20T11:17:41.473Z,12.80
2022-08-20T11:18:43.763Z,12.80
2022-08-20T11:19:40.818Z,11.70
2022-08-20T11:20:40.925Z,13.30
2022-08-20T11:21:40.605Z,11.10
2022-08-20T11:22:40.603Z,13.60
2022-08-20T11:23:40.616Z,13.40
2022-08-20T11:24:40.602Z,13.10
2022-08-20T11:25:40.622Z,12.10
2022-08-20T11:26:40.607Z,9.70
2022-08-20T11:27:40.621Z,10.00
2022-08-20T11:28:40.614Z,11.50
2022-08-20T11:29:40.605Z,10.50
2022-08-20T11:30:40.603Z,10.60
2022-08-20T11:31:40.626Z,11.40
2022-08-20T11:32:40.602Z,10.70
2022-08-20T11:33:40.604Z,10.20
2022-08-20T11:34:40.628Z,11.30
2022-08-20T11:37:12.767Z,11.60
2022-08-20T11:38:12.755Z,10.90
2022-08-20T11:39:12.766Z,11.70
2022-08-20T11:40:12.910Z,11.50
2022-08-20T11:41:12.848Z,9.40
2022-08-20T11:42:12.755Z,9.50
2022-08-20T11:43:15.581Z,12.20
2022-08-20T11:44:20.126Z,11.00
2022-08-20T11:45:12.752Z,8.80
2022-08-20T11:46:12.755Z,8.10
2022-08-20T11:47:12.770Z,8.70
2022-08-20T11:48:12.760Z,9.80
2022-08-20T11:49:12.758Z,11.80
2022-08-20T11:50:12.761Z,9.70
2022-08-20T11:51:12.755Z,8.80
2022-08-20T11:52:12.755Z,10.20
2022-08-20T11:53:12.751Z,11.20
2022-08-20T11:54:12.757Z,10.70
2022-08-20T11:55:12.779Z,9.90
2022-08-20T11:56:13.430Z,8.60
2022-08-20T11:57:12.753Z,10.50
2022-08-20T11:58:12.753Z,10.20
2022-08-20T11:59:12.828Z,10.90
2022-08-20T12:00:12.764Z,8.90
2022-08-20T12:01:12.752Z,8.50
2022-08-20T12:02:12.815Z,8.60
2022-08-20T12:03:12.792Z,8.30
2022-08-20T12:04:12.755Z,10.40
2022-08-20T12:05:12.828Z,8.30
2022-08-20T12:06:12.751Z,8.00
2022-08-20T12:07:12.751Z,7.60
2022-08-20T12:08:27.636Z,7.90
2022-08-20T12:09:12.748Z,8.10
2022-08-20T12:10:12.752Z,8.80
2022-08-20T12:11:12.753Z,7.70
2022-08-20T12:12:12.750Z,7.10
2022-08-20T12:13:12.751Z,8.60
2022-08-20T12:14:12.751Z,6.50
2022-08-20T12:15:12.749Z,6.80
2022-08-20T12:16:12.753Z,6.60
2022-08-20T12:17:12.751Z,6.30
2022-08-20T12:18:12.751Z,6.10
2022-08-20T12:19:12.749Z,7.00
2022-08-20T12:20:12.750Z,6.70
2022-08-20T12:21:12.750Z,6.40
2022-08-20T12:22:23.724Z,6.50
2022-08-20T12:23:12.843Z,6.30
2022-08-20T12:24:12.752Z,6.20
2022-08-20T12:25:12.750Z,6.30
2022-08-20T12:26:12.748Z,7.40
2022-08-20T12:27:12.748Z,6.50
2022-08-20T12:28:12.749Z,6.20
2022-08-20T12:29:12.747Z,7.70
2022-08-20T12:30:12.754Z,5.90
2022-08-20T12:31:12.753Z,5.90
2022-08-20T12:32:12.750Z,6.20
2022-08-20T12:33:12.749Z,5.40
2022-08-20T12:34:12.748Z,5.80
2022-08-20T12:35:12.754Z,5.40
2022-08-20T12:36:12.749Z,6.00
2022-08-20T12:37:15.411Z,6.20
2022-08-20T12:38:12.748Z,5.80
2022-08-20T12:39:12.752Z,6.40
2022-08-20T12:40:12.878Z,5.90
2022-08-20T12:41:12.749Z,5.80
2022-08-20T12:42:12.746Z,6.10
2022-08-20T12:43:12.747Z,5.90
2022-08-20T12:44:13.241Z,5.70
2022-08-20T12:45:12.751Z,5.40
2022-08-20T12:46:12.748Z,5.30
2022-08-20T12:47:12.750Z,7.50
2022-08-20T12:48:12.746Z,5.70
2022-08-20T12:49:12.744Z,5.30
2022-08-20T12:50:12.747Z,7.50
2022-08-20T12:51:12.748Z,7.20
2022-08-20T12:52:12.747Z,5.30
2022-08-20T12:53:12.745Z,6.10
2022-08-20T12:54:12.747Z,5.90
2022-08-20T12:55:12.745Z,6.80
2022-08-20T12:56:12.747Z,7.00
2022-08-20T12:57:12.745Z,6.20